sensor_id;sensor_type;location;lat;lon;timestamp;temperature;humidity
8965;DHT22;4517;49.020;12.066;2022-07-05T00:01:36;20.60;82.90
8965;DHT22;4517;49.020;12.066;2022-07-05T00:04:02;20.50;83.50
8965;DHT22;4517;49.020;12.066;2022-07-05T00:06:28;20.50;84.30
8965;DHT22;4517;49.020;12.066;2022-07-05T00:08:53;20.40;85.30
8965;DHT22;4517;49.020;12.066;2022-07-05T00:11:19;20.40;86.80
8965;DHT22;4517;49.020;12.066;2022-07-05T00:13:44;20.40;88.60
8965;DHT22;4517;49.020;12.066;2022-07-05T00:16:10;20.40;89.90
8965;DHT22;4517;49.020;12.066;2022-07-05T00:18:36;20.40;90.50
8965;DHT22;4517;49.020;12.066;2022-07-05T00:21:01;20.40;91.00
8965;DHT22;4517;49.020;12.066;2022-07-05T00:23:27;20.30;91.60
8965;DHT22;4517;49.020;12.066;2022-07-05T00:25:52;20.30;92.20
8965;DHT22;4517;49.020;12.066;2022-07-05T00:28:18;20.30;92.70
8965;DHT22;4517;49.020;12.066;2022-07-05T00:30:44;20.20;93.30
8965;DHT22;4517;49.020;12.066;2022-07-05T00:33:09;20.10;94.00
8965;DHT22;4517;49.020;12.066;2022-07-05T00:35:35;20.10;94.60
8965;DHT22;4517;49.020;12.066;2022-07-05T00:38:00;20.10;95.30
8965;DHT22;4517;49.020;12.066;2022-07-05T00:40:26;20.10;96.00
8965;DHT22;4517;49.020;12.066;2022-07-05T00:42:52;20.00;96.20
8965;DHT22;4517;49.020;12.066;2022-07-05T00:45:17;20.00;96.70
8965;DHT22;4517;49.020;12.066;2022-07-05T00:47:43;20.00;97.20
8965;DHT22;4517;49.020;12.066;2022-07-05T00:50:09;19.90;97.60
8965;DHT22;4517;49.020;12.066;2022-07-05T00:52:34;19.90;98.20
8965;DHT22;4517;49.020;12.066;2022-07-05T00:55:00;19.90;98.70
8965;DHT22;4517;49.020;12.066;2022-07-05T00:57:25;19.80;99.30
8965;DHT22;4517;49.020;12.066;2022-07-05T00:59:51;19.80;99.80
8965;DHT22;4517;49.020;12.066;2022-07-05T01:02:17;19.90;99.90
8965;DHT22;4517;49.020;12.066;2022-07-05T01:04:47;19.90;99.90
8965;DHT22;4517;49.020;12.066;2022-07-05T01:07:13;20.00;99.90
8965;DHT22;4517;49.020;12.066;2022-07-05T01:09:38;20.00;99.90
8965;DHT22;4517;49.020;12.066;2022-07-05T01:12:04;19.90;99.90
8965;DHT22;4517;49.020;12.066;2022-07-05T01:14:30;19.90;99.90
8965;DHT22;4517;49.020;12.066;2022-07-05T01:16:56;19.80;99.90
8965;DHT22;4517;49.020;12.066;2022-07-05T01:19:22;19.90;99.90
8965;DHT22;4517;49.020;12.066;2022-07-05T01:21:49;19.80;99.90
8965;DHT22;4517;49.020;12.066;2022-07-05T01:24:16;19.80;99.90
8965;DHT22;4517;49.020;12.066;2022-07-05T01:26:49;19.60;99.90
8965;DHT22;4517;49.020;12.066;2022-07-05T01:29:15;19.60;99.90
8965;DHT22;4517;49.020;12.066;2022-07-05T01:31:41;19.60;99.90
8965;DHT22;4517;49.020;12.066;2022-07-05T01:34:07;19.70;99.90
8965;DHT22;4517;49.020;12.066;2022-07-05T01:36:34;19.70;99.90
8965;DHT22;4517;49.020;12.066;2022-07-05T01:39:01;19.60;99.90
8965;DHT22;4517;49.020;12.066;2022-07-05T01:41:26;19.60;99.90
8965;DHT22;4517;49.020;12.066;2022-07-05T01:43:52;19.50;99.90
8965;DHT22;4517;49.020;12.066;2022-07-05T01:46:22;19.50;99.90
8965;DHT22;4517;49.020;12.066;2022-07-05T01:48:49;19.50;99.90
8965;DHT22;4517;49.020;12.066;2022-07-05T01:51:20;19.50;99.90
8965;DHT22;4517;49.020;12.066;2022-07-05T01:53:49;19.50;99.90
8965;DHT22;4517;49.020;12.066;2022-07-05T01:56:17;19.40;98.60
8965;DHT22;4517;49.020;12.066;2022-07-05T01:58:43;19.40;97.30
8965;DHT22;4517;49.020;12.066;2022-07-05T02:01:09;19.40;96.10
8965;DHT22;4517;49.020;12.066;2022-07-05T02:03:36;19.40;94.70
8965;DHT22;4517;49.020;12.066;2022-07-05T02:06:01;19.30;92.70
8965;DHT22;4517;49.020;12.066;2022-07-05T02:08:30;19.40;92.30
8965;DHT22;4517;49.020;12.066;2022-07-05T02:10:57;19.40;91.10
8965;DHT22;4517;49.020;12.066;2022-07-05T02:13:22;19.30;88.80
8965;DHT22;4517;49.020;12.066;2022-07-05T02:15:48;19.30;87.70
8965;DHT22;4517;49.020;12.066;2022-07-05T02:18:14;19.30;86.00
8965;DHT22;4517;49.020;12.066;2022-07-05T02:20:40;19.30;85.10
8965;DHT22;4517;49.020;12.066;2022-07-05T02:23:07;19.20;84.40
8965;DHT22;4517;49.020;12.066;2022-07-05T02:25:33;19.20;83.30
8965;DHT22;4517;49.020;12.066;2022-07-05T02:27:58;19.20;82.50
8965;DHT22;4517;49.020;12.066;2022-07-05T02:30:24;19.10;81.30
8965;DHT22;4517;49.020;12.066;2022-07-05T02:32:50;19.20;80.70
8965;DHT22;4517;49.020;12.066;2022-07-05T02:35:15;19.10;79.80
8965;DHT22;4517;49.020;12.066;2022-07-05T02:37:41;19.10;79.80
8965;DHT22;4517;49.020;12.066;2022-07-05T02:40:12;19.10;79.50
8965;DHT22;4517;49.020;12.066;2022-07-05T02:42:38;19.00;79.00
8965;DHT22;4517;49.020;12.066;2022-07-05T02:45:05;19.00;78.60
8965;DHT22;4517;49.020;12.066;2022-07-05T02:47:31;19.00;78.60
8965;DHT22;4517;49.020;12.066;2022-07-05T02:49:59;18.90;78.30
8965;DHT22;4517;49.020;12.066;2022-07-05T02:52:25;18.90;77.70
8965;DHT22;4517;49.020;12.066;2022-07-05T02:54:50;18.90;78.10
8965;DHT22;4517;49.020;12.066;2022-07-05T02:57:16;18.90;77.70
8965;DHT22;4517;49.020;12.066;2022-07-05T02:59:41;18.90;78.00
8965;DHT22;4517;49.020;12.066;2022-07-05T03:02:07;18.90;78.40
8965;DHT22;4517;49.020;12.066;2022-07-05T03:04:33;18.90;78.70
8965;DHT22;4517;49.020;12.066;2022-07-05T03:06:58;18.80;79.20
8965;DHT22;4517;49.020;12.066;2022-07-05T03:09:24;18.70;79.60
8965;DHT22;4517;49.020;12.066;2022-07-05T03:11:49;18.60;79.70
8965;DHT22;4517;49.020;12.066;2022-07-05T03:14:15;18.50;80.90
8965;DHT22;4517;49.020;12.066;2022-07-05T03:16:40;18.30;81.50
8965;DHT22;4517;49.020;12.066;2022-07-05T03:19:07;18.10;81.70
8965;DHT22;4517;49.020;12.066;2022-07-05T03:21:33;18.10;81.70
8965;DHT22;4517;49.020;12.066;2022-07-05T03:23:59;18.00;81.60
8965;DHT22;4517;49.020;12.066;2022-07-05T03:26:24;18.10;81.30
8965;DHT22;4517;49.020;12.066;2022-07-05T03:28:50;18.00;81.20
8965;DHT22;4517;49.020;12.066;2022-07-05T03:31:16;18.00;81.40
8965;DHT22;4517;49.020;12.066;2022-07-05T03:33:41;17.80;81.80
8965;DHT22;4517;49.020;12.066;2022-07-05T03:36:07;17.70;82.70
8965;DHT22;4517;49.020;12.066;2022-07-05T03:38:33;17.70;82.30
8965;DHT22;4517;49.020;12.066;2022-07-05T03:40:58;17.70;82.40
8965;DHT22;4517;49.020;12.066;2022-07-05T03:43:25;17.70;82.30
8965;DHT22;4517;49.020;12.066;2022-07-05T03:45:50;17.60;83.10
8965;DHT22;4517;49.020;12.066;2022-07-05T03:48:16;17.50;83.20
8965;DHT22;4517;49.020;12.066;2022-07-05T03:50:41;17.50;82.70
8965;DHT22;4517;49.020;12.066;2022-07-05T03:53:07;17.70;82.50
8965;DHT22;4517;49.020;12.066;2022-07-05T03:55:32;17.50;82.80
8965;DHT22;4517;49.020;12.066;2022-07-05T03:57:58;17.50;83.70
8965;DHT22;4517;49.020;12.066;2022-07-05T04:00:23;17.50;83.80
8965;DHT22;4517;49.020;12.066;2022-07-05T04:02:49;17.60;83.40
8965;DHT22;4517;49.020;12.066;2022-07-05T04:05:15;17.60;83.40
8965;DHT22;4517;49.020;12.066;2022-07-05T04:07:53;17.70;83.60
8965;DHT22;4517;49.020;12.066;2022-07-05T04:10:20;17.70;83.30
8965;DHT22;4517;49.020;12.066;2022-07-05T04:12:46;17.80;83.30
8965;DHT22;4517;49.020;12.066;2022-07-05T04:15:13;17.80;83.20
8965;DHT22;4517;49.020;12.066;2022-07-05T04:17:48;17.80;83.20
8965;DHT22;4517;49.020;12.066;2022-07-05T04:20:14;17.70;83.80
8965;DHT22;4517;49.020;12.066;2022-07-05T04:22:40;17.80;83.70
8965;DHT22;4517;49.020;12.066;2022-07-05T04:25:05;18.80;83.80
8965;DHT22;4517;49.020;12.066;2022-07-05T04:27:53;20.40;81.50
8965;DHT22;4517;49.020;12.066;2022-07-05T04:30:22;21.90;78.20
8965;DHT22;4517;49.020;12.066;2022-07-05T04:32:48;23.10;75.80
8965;DHT22;4517;49.020;12.066;2022-07-05T04:35:14;23.40;72.20
8965;DHT22;4517;49.020;12.066;2022-07-05T04:37:40;23.20;72.10
8965;DHT22;4517;49.020;12.066;2022-07-05T04:40:08;24.30;70.80
8965;DHT22;4517;49.020;12.066;2022-07-05T04:42:34;25.20;69.40
8965;DHT22;4517;49.020;12.066;2022-07-05T04:45:00;25.80;66.30
8965;DHT22;4517;49.020;12.066;2022-07-05T04:47:25;26.30;65.40
8965;DHT22;4517;49.020;12.066;2022-07-05T04:49:52;26.70;63.90
8965;DHT22;4517;49.020;12.066;2022-07-05T04:52:18;26.90;62.50
8965;DHT22;4517;49.020;12.066;2022-07-05T04:54:43;27.20;60.70
8965;DHT22;4517;49.020;12.066;2022-07-05T04:57:09;26.70;61.20
8965;DHT22;4517;49.020;12.066;2022-07-05T04:59:35;27.50;60.20
8965;DHT22;4517;49.020;12.066;2022-07-05T05:02:01;27.30;59.80
8965;DHT22;4517;49.020;12.066;2022-07-05T05:04:26;27.20;59.50
8965;DHT22;4517;49.020;12.066;2022-07-05T05:06:52;27.60;59.50
8965;DHT22;4517;49.020;12.066;2022-07-05T05:09:17;27.80;59.50
8965;DHT22;4517;49.020;12.066;2022-07-05T05:11:43;27.90;59.10
8965;DHT22;4517;49.020;12.066;2022-07-05T05:14:08;27.60;58.80
8965;DHT22;4517;49.020;12.066;2022-07-05T05:16:34;27.60;59.00
8965;DHT22;4517;49.020;12.066;2022-07-05T05:19:00;27.90;58.60
8965;DHT22;4517;49.020;12.066;2022-07-05T05:21:25;27.20;59.20
8965;DHT22;4517;49.020;12.066;2022-07-05T05:23:51;27.60;58.70
8965;DHT22;4517;49.020;12.066;2022-07-05T05:26:17;27.70;58.60
8965;DHT22;4517;49.020;12.066;2022-07-05T05:28:42;27.30;59.00
8965;DHT22;4517;49.020;12.066;2022-07-05T05:31:08;27.50;58.70
8965;DHT22;4517;49.020;12.066;2022-07-05T05:33:34;26.90;58.70
8965;DHT22;4517;49.020;12.066;2022-07-05T05:36:00;26.70;59.10
8965;DHT22;4517;49.020;12.066;2022-07-05T05:38:26;26.80;59.30
8965;DHT22;4517;49.020;12.066;2022-07-05T05:40:52;27.00;59.10
8965;DHT22;4517;49.020;12.066;2022-07-05T05:43:18;25.50;59.80
8965;DHT22;4517;49.020;12.066;2022-07-05T05:45:43;25.70;60.00
8965;DHT22;4517;49.020;12.066;2022-07-05T05:48:09;26.00;60.90
8965;DHT22;4517;49.020;12.066;2022-07-05T05:50:36;26.10;60.10
8965;DHT22;4517;49.020;12.066;2022-07-05T05:53:04;25.90;60.30
8965;DHT22;4517;49.020;12.066;2022-07-05T05:55:30;25.90;60.70
8965;DHT22;4517;49.020;12.066;2022-07-05T05:57:56;26.10;60.30
8965;DHT22;4517;49.020;12.066;2022-07-05T06:00:23;25.70;61.10
8965;DHT22;4517;49.020;12.066;2022-07-05T06:02:50;25.50;61.20
8965;DHT22;4517;49.020;12.066;2022-07-05T06:05:16;25.00;61.40
8965;DHT22;4517;49.020;12.066;2022-07-05T06:07:49;25.00;62.40
8965;DHT22;4517;49.020;12.066;2022-07-05T06:10:16;24.80;62.20
8965;DHT22;4517;49.020;12.066;2022-07-05T06:12:42;24.60;63.00
8965;DHT22;4517;49.020;12.066;2022-07-05T06:15:08;24.40;63.30
8965;DHT22;4517;49.020;12.066;2022-07-05T06:17:37;24.70;62.90
8965;DHT22;4517;49.020;12.066;2022-07-05T06:20:14;24.60;63.40
8965;DHT22;4517;49.020;12.066;2022-07-05T06:22:40;24.70;63.20
8965;DHT22;4517;49.020;12.066;2022-07-05T06:25:07;24.90;63.80
8965;DHT22;4517;49.020;12.066;2022-07-05T06:27:44;25.30;63.30
8965;DHT22;4517;49.020;12.066;2022-07-05T06:30:13;25.70;62.30
8965;DHT22;4517;49.020;12.066;2022-07-05T06:32:39;25.90;62.50
8965;DHT22;4517;49.020;12.066;2022-07-05T06:35:05;25.80;61.90
8965;DHT22;4517;49.020;12.066;2022-07-05T06:40:08;26.80;61.90
8965;DHT22;4517;49.020;12.066;2022-07-05T06:42:34;26.70;61.40
8965;DHT22;4517;49.020;12.066;2022-07-05T06:45:00;27.20;61.30
8965;DHT22;4517;49.020;12.066;2022-07-05T06:47:25;27.20;61.20
8965;DHT22;4517;49.020;12.066;2022-07-05T06:49:51;27.10;61.60
8965;DHT22;4517;49.020;12.066;2022-07-05T06:52:16;27.40;60.00
8965;DHT22;4517;49.020;12.066;2022-07-05T06:54:42;26.70;61.20
8965;DHT22;4517;49.020;12.066;2022-07-05T06:57:08;27.20;60.20
8965;DHT22;4517;49.020;12.066;2022-07-05T06:59:33;26.60;61.10
8965;DHT22;4517;49.020;12.066;2022-07-05T07:01:59;27.10;60.20
8965;DHT22;4517;49.020;12.066;2022-07-05T07:04:24;26.80;60.80
8965;DHT22;4517;49.020;12.066;2022-07-05T07:06:50;27.40;60.20
8965;DHT22;4517;49.020;12.066;2022-07-05T07:09:16;28.20;59.30
8965;DHT22;4517;49.020;12.066;2022-07-05T07:11:45;27.20;60.10
8965;DHT22;4517;49.020;12.066;2022-07-05T07:14:10;26.90;60.00
8965;DHT22;4517;49.020;12.066;2022-07-05T07:16:36;26.70;60.80
8965;DHT22;4517;49.020;12.066;2022-07-05T07:19:02;25.70;61.20
8965;DHT22;4517;49.020;12.066;2022-07-05T07:21:27;25.20;63.30
8965;DHT22;4517;49.020;12.066;2022-07-05T07:23:53;24.90;62.80
8965;DHT22;4517;49.020;12.066;2022-07-05T07:26:18;24.60;63.50
8965;DHT22;4517;49.020;12.066;2022-07-05T07:28:44;24.30;64.00
8965;DHT22;4517;49.020;12.066;2022-07-05T07:31:10;24.60;64.20
8965;DHT22;4517;49.020;12.066;2022-07-05T07:33:36;24.90;64.30
8965;DHT22;4517;49.020;12.066;2022-07-05T07:36:02;25.00;63.90
8965;DHT22;4517;49.020;12.066;2022-07-05T07:38:28;24.70;63.60
8965;DHT22;4517;49.020;12.066;2022-07-05T07:40:53;24.80;64.30
8965;DHT22;4517;49.020;12.066;2022-07-05T07:43:19;24.40;63.90
8965;DHT22;4517;49.020;12.066;2022-07-05T07:45:44;24.10;65.10
8965;DHT22;4517;49.020;12.066;2022-07-05T07:48:10;24.20;65.50
8965;DHT22;4517;49.020;12.066;2022-07-05T07:50:36;24.20;64.90
8965;DHT22;4517;49.020;12.066;2022-07-05T07:53:01;24.10;64.80
8965;DHT22;4517;49.020;12.066;2022-07-05T07:55:27;24.30;65.10
8965;DHT22;4517;49.020;12.066;2022-07-05T07:57:52;24.00;64.80
8965;DHT22;4517;49.020;12.066;2022-07-05T08:00:18;23.70;65.20
8965;DHT22;4517;49.020;12.066;2022-07-05T08:02:44;23.70;65.70
8965;DHT22;4517;49.020;12.066;2022-07-05T08:05:09;23.80;65.00
8965;DHT22;4517;49.020;12.066;2022-07-05T08:07:36;24.00;65.10
8965;DHT22;4517;49.020;12.066;2022-07-05T08:10:03;24.10;64.70
8965;DHT22;4517;49.020;12.066;2022-07-05T08:12:29;24.10;64.90
8965;DHT22;4517;49.020;12.066;2022-07-05T08:14:54;24.20;64.40
8965;DHT22;4517;49.020;12.066;2022-07-05T08:17:20;24.20;65.00
8965;DHT22;4517;49.020;12.066;2022-07-05T08:19:46;24.50;65.40
8965;DHT22;4517;49.020;12.066;2022-07-05T08:22:31;24.60;65.10
8965;DHT22;4517;49.020;12.066;2022-07-05T08:24:57;24.80;64.20
8965;DHT22;4517;49.020;12.066;2022-07-05T08:27:23;24.60;63.30
8965;DHT22;4517;49.020;12.066;2022-07-05T08:29:49;24.60;64.40
8965;DHT22;4517;49.020;12.066;2022-07-05T08:32:15;24.70;64.00
8965;DHT22;4517;49.020;12.066;2022-07-05T08:34:41;24.80;63.80
8965;DHT22;4517;49.020;12.066;2022-07-05T08:37:07;24.90;62.30
8965;DHT22;4517;49.020;12.066;2022-07-05T08:39:33;24.80;62.40
8965;DHT22;4517;49.020;12.066;2022-07-05T08:41:59;25.00;62.90
8965;DHT22;4517;49.020;12.066;2022-07-05T08:44:30;25.10;61.60
8965;DHT22;4517;49.020;12.066;2022-07-05T08:47:02;25.10;61.70
8965;DHT22;4517;49.020;12.066;2022-07-05T08:49:28;25.30;61.60
8965;DHT22;4517;49.020;12.066;2022-07-05T08:51:56;25.10;61.20
8965;DHT22;4517;49.020;12.066;2022-07-05T08:54:23;25.20;61.00
8965;DHT22;4517;49.020;12.066;2022-07-05T08:56:49;25.40;61.30
8965;DHT22;4517;49.020;12.066;2022-07-05T08:59:15;25.90;60.80
8965;DHT22;4517;49.020;12.066;2022-07-05T09:01:41;25.90;59.90
8965;DHT22;4517;49.020;12.066;2022-07-05T09:04:10;25.80;59.70
8965;DHT22;4517;49.020;12.066;2022-07-05T09:06:39;25.60;59.60
8965;DHT22;4517;49.020;12.066;2022-07-05T09:09:05;25.40;59.40
8965;DHT22;4517;49.020;12.066;2022-07-05T09:11:39;25.40;59.70
8965;DHT22;4517;49.020;12.066;2022-07-05T09:14:07;25.40;59.10
8965;DHT22;4517;49.020;12.066;2022-07-05T09:16:43;25.50;59.00
8965;DHT22;4517;49.020;12.066;2022-07-05T09:19:09;25.70;59.30
8965;DHT22;4517;49.020;12.066;2022-07-05T09:21:35;25.90;58.30
8965;DHT22;4517;49.020;12.066;2022-07-05T09:24:07;25.90;58.60
8965;DHT22;4517;49.020;12.066;2022-07-05T09:26:42;26.10;58.10
8965;DHT22;4517;49.020;12.066;2022-07-05T09:29:18;26.20;57.40
8965;DHT22;4517;49.020;12.066;2022-07-05T09:31:48;26.20;57.30
8965;DHT22;4517;49.020;12.066;2022-07-05T09:34:19;26.20;57.30
8965;DHT22;4517;49.020;12.066;2022-07-05T09:42:16;26.50;55.60
8965;DHT22;4517;49.020;12.066;2022-07-05T09:44:49;26.50;55.80
8965;DHT22;4517;49.020;12.066;2022-07-05T09:47:19;26.60;56.00
8965;DHT22;4517;49.020;12.066;2022-07-05T09:49:47;26.30;56.00
8965;DHT22;4517;49.020;12.066;2022-07-05T09:52:36;26.20;55.30
8965;DHT22;4517;49.020;12.066;2022-07-05T09:55:09;26.20;55.70
8965;DHT22;4517;49.020;12.066;2022-07-05T09:57:40;26.20;56.50
8965;DHT22;4517;49.020;12.066;2022-07-05T10:00:08;26.10;56.00
8965;DHT22;4517;49.020;12.066;2022-07-05T10:02:39;26.20;55.10
8965;DHT22;4517;49.020;12.066;2022-07-05T10:07:40;26.50;55.40
8965;DHT22;4517;49.020;12.066;2022-07-05T10:10:10;26.70;54.50
8965;DHT22;4517;49.020;12.066;2022-07-05T10:12:36;27.00;54.30
8965;DHT22;4517;49.020;12.066;2022-07-05T10:15:03;27.10;53.50
8965;DHT22;4517;49.020;12.066;2022-07-05T10:17:30;27.30;53.30
8965;DHT22;4517;49.020;12.066;2022-07-05T10:20:00;27.50;53.40
8965;DHT22;4517;49.020;12.066;2022-07-05T10:22:27;27.60;53.40
8965;DHT22;4517;49.020;12.066;2022-07-05T10:24:54;27.70;53.30
8965;DHT22;4517;49.020;12.066;2022-07-05T10:27:20;27.30;52.40
8965;DHT22;4517;49.020;12.066;2022-07-05T10:29:49;27.00;52.90
8965;DHT22;4517;49.020;12.066;2022-07-05T10:32:15;27.00;53.30
8965;DHT22;4517;49.020;12.066;2022-07-05T10:34:42;26.70;52.50
8965;DHT22;4517;49.020;12.066;2022-07-05T10:37:11;26.80;52.90
8965;DHT22;4517;49.020;12.066;2022-07-05T10:39:37;26.90;52.30
8965;DHT22;4517;49.020;12.066;2022-07-05T10:42:05;26.70;51.50
8965;DHT22;4517;49.020;12.066;2022-07-05T10:44:33;26.40;49.40
8965;DHT22;4517;49.020;12.066;2022-07-05T10:47:09;26.30;49.00
8965;DHT22;4517;49.020;12.066;2022-07-05T10:49:39;26.40;49.50
8965;DHT22;4517;49.020;12.066;2022-07-05T10:52:21;26.50;49.90
8965;DHT22;4517;49.020;12.066;2022-07-05T10:57:42;26.70;50.10
8965;DHT22;4517;49.020;12.066;2022-07-05T11:00:09;26.60;50.30
8965;DHT22;4517;49.020;12.066;2022-07-05T11:02:35;26.80;51.40
8965;DHT22;4517;49.020;12.066;2022-07-05T11:05:01;26.70;51.20
8965;DHT22;4517;49.020;12.066;2022-07-05T11:08:01;26.90;51.90
8965;DHT22;4517;49.020;12.066;2022-07-05T11:10:28;27.30;50.80
8965;DHT22;4517;49.020;12.066;2022-07-05T11:12:56;27.20;50.50
8965;DHT22;4517;49.020;12.066;2022-07-05T11:15:22;27.10;48.00
8965;DHT22;4517;49.020;12.066;2022-07-05T11:17:48;27.00;48.40
8965;DHT22;4517;49.020;12.066;2022-07-05T11:20:31;27.10;47.00
8965;DHT22;4517;49.020;12.066;2022-07-05T11:25:32;26.90;47.70
8965;DHT22;4517;49.020;12.066;2022-07-05T11:28:11;27.10;48.30
8965;DHT22;4517;49.020;12.066;2022-07-05T11:30:54;26.70;48.30
8965;DHT22;4517;49.020;12.066;2022-07-05T11:35:56;26.60;48.90
8965;DHT22;4517;49.020;12.066;2022-07-05T11:38:25;26.80;48.70
8965;DHT22;4517;49.020;12.066;2022-07-05T11:40:51;26.90;48.60
8965;DHT22;4517;49.020;12.066;2022-07-05T11:43:29;27.00;48.00
8965;DHT22;4517;49.020;12.066;2022-07-05T11:45:58;27.00;47.70
8965;DHT22;4517;49.020;12.066;2022-07-05T11:48:26;27.00;46.70
8965;DHT22;4517;49.020;12.066;2022-07-05T11:50:52;27.00;47.20
8965;DHT22;4517;49.020;12.066;2022-07-05T11:53:29;27.10;47.50
8965;DHT22;4517;49.020;12.066;2022-07-05T11:55:59;27.30;46.90
8965;DHT22;4517;49.020;12.066;2022-07-05T11:58:32;27.40;46.40
8965;DHT22;4517;49.020;12.066;2022-07-05T12:00:58;27.60;46.00
8965;DHT22;4517;49.020;12.066;2022-07-05T12:03:24;27.80;45.60
8965;DHT22;4517;49.020;12.066;2022-07-05T12:05:50;27.70;45.80
8965;DHT22;4517;49.020;12.066;2022-07-05T12:08:22;27.50;46.10
8965;DHT22;4517;49.020;12.066;2022-07-05T12:10:48;27.50;45.70
8965;DHT22;4517;49.020;12.066;2022-07-05T12:13:45;27.40;45.40
8965;DHT22;4517;49.020;12.066;2022-07-05T12:16:12;27.50;45.20
8965;DHT22;4517;49.020;12.066;2022-07-05T12:18:52;27.30;45.00
8965;DHT22;4517;49.020;12.066;2022-07-05T12:21:20;27.30;44.70
8965;DHT22;4517;49.020;12.066;2022-07-05T12:23:47;27.10;45.00
8965;DHT22;4517;49.020;12.066;2022-07-05T12:26:14;26.90;45.20
8965;DHT22;4517;49.020;12.066;2022-07-05T12:28:42;27.10;44.80
8965;DHT22;4517;49.020;12.066;2022-07-05T12:31:34;27.30;44.60
8965;DHT22;4517;49.020;12.066;2022-07-05T12:34:16;27.30;44.50
8965;DHT22;4517;49.020;12.066;2022-07-05T12:36:42;27.30;43.00
8965;DHT22;4517;49.020;12.066;2022-07-05T12:39:08;27.20;42.50
8965;DHT22;4517;49.020;12.066;2022-07-05T12:41:33;27.20;42.90
8965;DHT22;4517;49.020;12.066;2022-07-05T12:43:59;27.40;42.90
8965;DHT22;4517;49.020;12.066;2022-07-05T12:46:39;27.70;43.90
8965;DHT22;4517;49.020;12.066;2022-07-05T12:49:06;27.60;44.10
8965;DHT22;4517;49.020;12.066;2022-07-05T12:51:33;27.60;42.80
8965;DHT22;4517;49.020;12.066;2022-07-05T12:53:59;27.60;43.30
8965;DHT22;4517;49.020;12.066;2022-07-05T12:56:48;27.80;43.40
8965;DHT22;4517;49.020;12.066;2022-07-05T12:59:31;28.10;43.30
8965;DHT22;4517;49.020;12.066;2022-07-05T13:01:57;27.90;43.80
8965;DHT22;4517;49.020;12.066;2022-07-05T13:04:23;27.70;44.40
8965;DHT22;4517;49.020;12.066;2022-07-05T13:06:51;27.70;45.10
8965;DHT22;4517;49.020;12.066;2022-07-05T13:09:33;27.30;44.20
8965;DHT22;4517;49.020;12.066;2022-07-05T13:12:18;27.10;44.50
8965;DHT22;4517;49.020;12.066;2022-07-05T13:14:47;27.30;44.70
8965;DHT22;4517;49.020;12.066;2022-07-05T13:17:18;27.40;43.90
8965;DHT22;4517;49.020;12.066;2022-07-05T13:19:45;27.30;43.60
8965;DHT22;4517;49.020;12.066;2022-07-05T13:22:12;27.40;44.00
8965;DHT22;4517;49.020;12.066;2022-07-05T13:24:38;27.60;43.50
8965;DHT22;4517;49.020;12.066;2022-07-05T13:27:05;27.70;43.30
8965;DHT22;4517;49.020;12.066;2022-07-05T13:29:31;27.50;43.60
8965;DHT22;4517;49.020;12.066;2022-07-05T13:31:57;27.60;43.90
8965;DHT22;4517;49.020;12.066;2022-07-05T13:34:23;27.70;44.00
8965;DHT22;4517;49.020;12.066;2022-07-05T13:36:55;27.50;43.50
8965;DHT22;4517;49.020;12.066;2022-07-05T13:39:21;27.10;43.40
8965;DHT22;4517;49.020;12.066;2022-07-05T13:41:49;26.90;43.90
8965;DHT22;4517;49.020;12.066;2022-07-05T13:44:15;26.80;44.00
8965;DHT22;4517;49.020;12.066;2022-07-05T13:46:40;26.90;43.80
8965;DHT22;4517;49.020;12.066;2022-07-05T13:49:06;27.20;44.10
8965;DHT22;4517;49.020;12.066;2022-07-05T13:51:32;27.60;44.20
8965;DHT22;4517;49.020;12.066;2022-07-05T13:53:57;27.80;43.60
8965;DHT22;4517;49.020;12.066;2022-07-05T13:56:23;27.90;43.70
8965;DHT22;4517;49.020;12.066;2022-07-05T13:58:49;28.00;43.20
8965;DHT22;4517;49.020;12.066;2022-07-05T14:01:14;27.80;42.30
8965;DHT22;4517;49.020;12.066;2022-07-05T14:03:40;27.70;42.10
8965;DHT22;4517;49.020;12.066;2022-07-05T14:06:05;27.50;42.70
8965;DHT22;4517;49.020;12.066;2022-07-05T14:08:31;27.40;42.90
8965;DHT22;4517;49.020;12.066;2022-07-05T14:10:57;27.30;42.80
8965;DHT22;4517;49.020;12.066;2022-07-05T14:13:25;27.50;42.80
8965;DHT22;4517;49.020;12.066;2022-07-05T14:15:51;27.60;43.00
8965;DHT22;4517;49.020;12.066;2022-07-05T14:18:18;27.70;43.20
8965;DHT22;4517;49.020;12.066;2022-07-05T14:20:46;27.70;42.70
8965;DHT22;4517;49.020;12.066;2022-07-05T14:23:12;27.90;43.20
8965;DHT22;4517;49.020;12.066;2022-07-05T14:25:40;27.90;41.50
8965;DHT22;4517;49.020;12.066;2022-07-05T14:28:06;28.00;42.10
8965;DHT22;4517;49.020;12.066;2022-07-05T14:30:38;28.20;41.70
8965;DHT22;4517;49.020;12.066;2022-07-05T14:33:05;28.30;42.00
8965;DHT22;4517;49.020;12.066;2022-07-05T14:35:31;28.10;41.20
8965;DHT22;4517;49.020;12.066;2022-07-05T14:37:58;28.10;41.60
8965;DHT22;4517;49.020;12.066;2022-07-05T14:40:25;27.90;41.40
8965;DHT22;4517;49.020;12.066;2022-07-05T14:42:54;28.00;42.30
8965;DHT22;4517;49.020;12.066;2022-07-05T14:45:20;28.10;42.40
8965;DHT22;4517;49.020;12.066;2022-07-05T14:47:46;28.00;42.20
8965;DHT22;4517;49.020;12.066;2022-07-05T14:50:13;28.00;42.30
8965;DHT22;4517;49.020;12.066;2022-07-05T14:52:39;28.00;41.90
8965;DHT22;4517;49.020;12.066;2022-07-05T14:55:05;28.10;42.50
8965;DHT22;4517;49.020;12.066;2022-07-05T14:57:30;28.00;42.20
8965;DHT22;4517;49.020;12.066;2022-07-05T14:59:56;27.80;41.80
8965;DHT22;4517;49.020;12.066;2022-07-05T15:02:21;27.70;42.40
8965;DHT22;4517;49.020;12.066;2022-07-05T15:04:47;27.50;42.70
8965;DHT22;4517;49.020;12.066;2022-07-05T15:07:12;27.30;42.50
8965;DHT22;4517;49.020;12.066;2022-07-05T15:09:38;27.20;42.50
8965;DHT22;4517;49.020;12.066;2022-07-05T15:12:04;27.10;42.60
8965;DHT22;4517;49.020;12.066;2022-07-05T15:14:29;27.20;42.50
8965;DHT22;4517;49.020;12.066;2022-07-05T15:16:56;27.40;43.10
8965;DHT22;4517;49.020;12.066;2022-07-05T15:19:22;27.70;42.80
8965;DHT22;4517;49.020;12.066;2022-07-05T15:21:49;27.50;42.30
8965;DHT22;4517;49.020;12.066;2022-07-05T15:24:15;27.70;42.50
8965;DHT22;4517;49.020;12.066;2022-07-05T15:26:40;27.70;42.70
8965;DHT22;4517;49.020;12.066;2022-07-05T15:29:08;27.80;42.20
8965;DHT22;4517;49.020;12.066;2022-07-05T15:31:35;27.80;42.10
8965;DHT22;4517;49.020;12.066;2022-07-05T15:34:02;28.00;42.20
8965;DHT22;4517;49.020;12.066;2022-07-05T15:36:28;28.20;42.10
8965;DHT22;4517;49.020;12.066;2022-07-05T15:38:58;28.20;42.10
8965;DHT22;4517;49.020;12.066;2022-07-05T15:41:24;28.20;42.30
8965;DHT22;4517;49.020;12.066;2022-07-05T15:43:49;27.90;41.70
8965;DHT22;4517;49.020;12.066;2022-07-05T15:46:15;27.80;42.60
8965;DHT22;4517;49.020;12.066;2022-07-05T15:48:41;27.60;42.40
8965;DHT22;4517;49.020;12.066;2022-07-05T15:51:07;27.40;42.70
8965;DHT22;4517;49.020;12.066;2022-07-05T15:53:33;27.50;42.70
8965;DHT22;4517;49.020;12.066;2022-07-05T15:55:59;27.80;42.50
8965;DHT22;4517;49.020;12.066;2022-07-05T15:58:26;28.30;42.50
8965;DHT22;4517;49.020;12.066;2022-07-05T16:00:52;28.60;41.80
8965;DHT22;4517;49.020;12.066;2022-07-05T16:03:17;29.10;42.00
8965;DHT22;4517;49.020;12.066;2022-07-05T16:05:43;29.60;41.80